Time;durP1;ratioP1;P1;durP2;ratioP2;P2;SDS_P1;SDS_P2;PMS_P1;PMS_P2;Temp;Humidity;BMP_temperature;BMP_pressure;BME280_temperature;BME280_humidity;BME280_pressure;Samples;Min_cycle;Max_cycle;Signal;HPM_P1;HPM_P2
2022/04/07 00:00:59;;;;;;;11.48;1.88;;;;;;;;;;5052915;28;20045;-77
2022/04/07 00:03:26;;;;;;;7.30;1.63;;;;;;;;;;5052775;28;20052;-77
2022/04/07 00:05:53;;;;;;;14.88;2.80;;;;;;;;;;5052516;28;20057;-78
2022/04/07 00:08:19;;;;;;;6.93;1.40;;;;;;;;;;5052459;28;20107;-76
2022/04/07 00:10:48;;;;;;;7.22;1.30;;;;;;;;;;5052493;28;20079;-77
2022/04/07 00:13:14;;;;;;;6.30;1.40;;;;;;;;;;5052300;28;20091;-77
2022/04/07 00:15:41;;;;;;;9.88;2.17;;;;;;;;;;5052429;28;20562;-77
2022/04/07 00:18:07;;;;;;;8.40;1.88;;;;;;;;;;5052023;28;20072;-78
2022/04/07 00:20:34;;;;;;;4.75;0.90;;;;;;;;;;5052507;28;20044;-77
2022/04/07 00:23:00;;;;;;;6.05;1.00;;;;;;;;;;5052563;28;20374;-79
2022/04/07 00:25:27;;;;;;;7.78;1.33;;;;;;;;;;5052445;28;20044;-77
2022/04/07 00:27:53;;;;;;;9.63;1.10;;;;;;;;;;5050983;28;20080;-80
2022/04/07 00:30:20;;;;;;;8.13;1.27;;;;;;;;;;5052388;28;20087;-79
2022/04/07 00:32:48;;;;;;;4.07;0.75;;;;;;;;;;5052166;28;20523;-79
2022/04/07 00:35:15;;;;;;;7.47;1.00;;;;;;;;;;5050945;28;20049;-78
2022/04/07 00:37:42;;;;;;;5.33;0.73;;;;;;;;;;5051921;28;20103;-78
2022/04/07 00:40:09;;;;;;;4.00;1.23;;;;;;;;;;5051982;28;20088;-77
2022/04/07 00:42:48;;;;;;;5.00;1.35;;;;;;;;;;5051672;28;20085;-77
2022/04/07 00:45:15;;;;;;;4.88;0.75;;;;;;;;;;5051939;28;20543;-77
2022/04/07 00:47:43;;;;;;;4.82;1.05;;;;;;;;;;5051736;28;20088;-76
2022/04/07 00:50:10;;;;;;;9.20;1.17;;;;;;;;;;5052047;28;20092;-76
2022/04/07 00:52:39;;;;;;;10.70;1.60;;;;;;;;;;5050554;28;20618;-77
2022/04/07 00:55:06;;;;;;;8.18;1.38;;;;;;;;;;5051943;28;20467;-76
2022/04/07 00:57:33;;;;;;;8.40;1.42;;;;;;;;;;5052064;28;20083;-76
2022/04/07 01:00:00;;;;;;;7.65;1.20;;;;;;;;;;5051912;28;20454;-76
2022/04/07 01:02:27;;;;;;;8.82;1.48;;;;;;;;;;5051633;28;20497;-76
2022/04/07 01:04:53;;;;;;;7.72;1.60;;;;;;;;;;5051715;28;20045;-76
2022/04/07 01:07:20;;;;;;;10.35;1.33;;;;;;;;;;5051570;28;20088;-76
2022/04/07 01:09:46;;;;;;;6.75;1.40;;;;;;;;;;5050221;28;20076;-76
2022/04/07 01:12:13;;;;;;;9.10;2.65;;;;;;;;;;5050312;28;20148;-75
2022/04/07 01:14:56;;;;;;;10.38;1.58;;;;;;;;;;5051476;28;20098;-76
2022/04/07 01:17:22;;;;;;;7.13;1.20;;;;;;;;;;5050551;28;20118;-74
2022/04/07 01:19:49;;;;;;;9.70;1.60;;;;;;;;;;5051685;28;20084;-74
2022/04/07 01:22:15;;;;;;;11.65;1.60;;;;;;;;;;5050350;28;20084;-73
2022/04/07 01:24:42;;;;;;;13.55;2.10;;;;;;;;;;5050421;28;20049;-73
2022/04/07 01:27:08;;;;;;;9.00;1.60;;;;;;;;;;5051372;28;20096;-73
2022/04/07 01:29:35;;;;;;;8.88;1.33;;;;;;;;;;5051502;28;20099;-73
2022/04/07 01:32:07;;;;;;;6.53;1.48;;;;;;;;;;5051749;28;20099;-73
2022/04/07 01:34:34;;;;;;;7.78;0.98;;;;;;;;;;5050489;28;20049;-72
2022/04/07 01:37:00;;;;;;;8.80;1.17;;;;;;;;;;5051692;28;20068;-72
2022/04/07 01:39:27;;;;;;;9.10;1.38;;;;;;;;;;5051152;28;20053;-72
2022/04/07 01:41:54;;;;;;;5.88;1.20;;;;;;;;;;5051962;28;20471;-72
2022/04/07 01:44:22;;;;;;;10.68;1.30;;;;;;;;;;5051095;28;20114;-71
2022/04/07 01:46:51;;;;;;;6.60;1.20;;;;;;;;;;5051472;28;20088;-70
2022/04/07 01:49:18;;;;;;;9.43;1.70;;;;;;;;;;5051099;28;20071;-70
2022/04/07 01:51:45;;;;;;;6.35;1.38;;;;;;;;;;5051299;28;20088;-70
2022/04/07 01:54:13;;;;;;;6.45;1.15;;;;;;;;;;5044895;28;20045;-70
2022/04/07 01:56:41;;;;;;;3.75;1.33;;;;;;;;;;5051193;28;20098;-70
2022/04/07 01:59:08;;;;;;;7.77;1.20;;;;;;;;;;5052666;28;20467;-71
2022/04/07 02:01:35;;;;;;;7.43;1.30;;;;;;;;;;5053896;28;20080;-71
2022/04/07 02:04:04;;;;;;;5.30;1.17;;;;;;;;;;5053954;28;20041;-71
2022/04/07 02:06:30;;;;;;;8.95;1.40;;;;;;;;;;5054830;28;20496;-71
2022/04/07 02:08:57;;;;;;;9.45;1.80;;;;;;;;;;5054974;28;20484;-71
2022/04/07 02:11:23;;;;;;;8.73;1.65;;;;;;;;;;5054615;28;20076;-71
2022/04/07 02:13:50;;;;;;;7.10;1.40;;;;;;;;;;5054600;28;20095;-71
2022/04/07 02:16:16;;;;;;;9.88;1.13;;;;;;;;;;5053826;28;20413;-71
2022/04/07 02:18:43;;;;;;;8.57;1.58;;;;;;;;;;5054693;28;20484;-71
2022/04/07 02:21:09;;;;;;;3.28;0.60;;;;;;;;;;5054453;28;20532;-70
2022/04/07 02:23:42;;;;;;;5.88;1.05;;;;;;;;;;5054792;28;20045;-71
2022/04/07 02:26:12;;;;;;;5.10;1.02;;;;;;;;;;5053184;28;20041;-70
2022/04/07 02:28:42;;;;;;;4.07;0.80;;;;;;;;;;5054336;28;20485;-70
2022/04/07 02:31:08;;;;;;;5.90;0.70;;;;;;;;;;5054381;28;20076;-70
2022/04/07 02:33:35;;;;;;;6.97;0.85;;;;;;;;;;5053372;28;20469;-70
2022/04/07 02:36:03;;;;;;;3.37;0.90;;;;;;;;;;5054236;28;20053;-70
2022/04/07 02:38:29;;;;;;;4.47;1.65;;;;;;;;;;5054247;28;20539;-70
2022/04/07 02:40:56;;;;;;;6.13;0.85;;;;;;;;;;5054150;28;20152;-70
2022/04/07 02:43:22;;;;;;;5.65;0.88;;;;;;;;;;5053116;28;20073;-70
2022/04/07 02:45:49;;;;;;;7.07;1.00;;;;;;;;;;5054084;28;20052;-70
2022/04/07 02:48:16;;;;;;;7.80;0.73;;;;;;;;;;5054148;28;20076;-69
2022/04/07 02:50:43;;;;;;;7.43;0.85;;;;;;;;;;5053936;28;20131;-69
2022/04/07 02:53:10;;;;;;;9.77;0.97;;;;;;;;;;5052597;28;20524;-69
2022/04/07 02:55:36;;;;;;;3.78;1.08;;;;;;;;;;5053937;28;20072;-69
2022/04/07 02:58:03;;;;;;;8.15;1.05;;;;;;;;;;5054029;28;20132;-69
2022/04/07 03:00:29;;;;;;;5.60;0.73;;;;;;;;;;5055062;28;20080;-68
2022/04/07 03:02:56;;;;;;;5.75;1.20;;;;;;;;;;5053687;28;20084;-68
2022/04/07 03:05:22;;;;;;;4.07;0.90;;;;;;;;;;5054025;28;20078;-68
2022/04/07 03:07:49;;;;;;;4.47;1.00;;;;;;;;;;5053690;28;20135;-68
2022/04/07 03:10:15;;;;;;;6.78;1.20;;;;;;;;;;5052280;28;20076;-68
2022/04/07 03:12:42;;;;;;;4.80;0.80;;;;;;;;;;5053846;28;20449;-68
2022/04/07 03:15:09;;;;;;;4.97;1.30;;;;;;;;;;5053804;28;20558;-67
2022/04/07 03:17:36;;;;;;;6.97;1.00;;;;;;;;;;5053770;28;20049;-67
2022/04/07 03:20:02;;;;;;;4.43;0.73;;;;;;;;;;5053460;28;20081;-67
2022/04/07 03:22:29;;;;;;;7.82;1.27;;;;;;;;;;5053648;28;20117;-68
2022/04/07 03:24:55;;;;;;;6.13;1.02;;;;;;;;;;5053613;28;20085;-68
2022/04/07 03:27:21;;;;;;;8.85;1.40;;;;;;;;;;5053465;28;20049;-68
2022/04/07 03:29:48;;;;;;;7.25;1.20;;;;;;;;;;5053415;28;20080;-68
2022/04/07 03:32:14;;;;;;;11.95;1.75;;;;;;;;;;5053512;28;20099;-67
2022/04/07 03:34:41;;;;;;;28.15;2.58;;;;;;;;;;5053470;28;20089;-68
2022/04/07 03:37:07;;;;;;;12.35;1.63;;;;;;;;;;5053406;28;20503;-67
2022/04/07 03:39:33;;;;;;;10.73;2.75;;;;;;;;;;5052870;28;20099;-67
2022/04/07 03:42:00;;;;;;;16.35;2.65;;;;;;;;;;5053112;28;20080;-67
2022/04/07 03:44:27;;;;;;;18.42;2.83;;;;;;;;;;5053126;28;20122;-67
2022/04/07 03:46:53;;;;;;;16.33;2.63;;;;;;;;;;5053210;28;20080;-67
2022/04/07 03:49:20;;;;;;;17.55;2.38;;;;;;;;;;5052777;28;20045;-67
2022/04/07 03:51:46;;;;;;;20.33;2.58;;;;;;;;;;5053108;28;20335;-67
2022/04/07 03:54:14;;;;;;;22.52;4.10;;;;;;;;;;5052833;28;20056;-67
2022/04/07 03:56:40;;;;;;;14.03;2.47;;;;;;;;;;5052839;28;20176;-67
2022/04/07 03:59:07;;;;;;;15.85;2.67;;;;;;;;;;5052796;28;20322;-67
2022/04/07 04:01:34;;;;;;;15.40;2.10;;;;;;;;;;5052753;28;20445;-67
2022/04/07 04:04:04;;;;;;;21.83;3.58;;;;;;;;;;5052878;28;20053;-67
2022/04/07 04:06:30;;;;;;;13.63;1.88;;;;;;;;;;5052826;28;20076;-67
2022/04/07 04:08:57;;;;;;;13.05;2.38;;;;;;;;;;5052405;28;20048;-67
2022/04/07 04:11:23;;;;;;;15.77;2.33;;;;;;;;;;5052374;28;20076;-67
2022/04/07 04:13:50;;;;;;;12.60;2.22;;;;;;;;;;5052347;28;20067;-67
2022/04/07 04:16:17;;;;;;;14.18;2.25;;;;;;;;;;5052617;28;20072;-67
2022/04/07 04:18:44;;;;;;;13.43;1.98;;;;;;;;;;5052351;28;20057;-67
2022/04/07 04:21:10;;;;;;;10.52;1.88;;;;;;;;;;5051896;28;20514;-67
2022/04/07 04:23:38;;;;;;;17.75;2.78;;;;;;;;;;5052241;28;20091;-67
2022/04/07 04:26:05;;;;;;;;;;;;;;;;;;5052890;28;20153;-67
2022/04/07 04:28:31;;;;;;;13.50;1.67;;;;;;;;;;5052489;28;20038;-67
2022/04/07 04:30:58;;;;;;;11.95;2.42;;;;;;;;;;5052073;28;20048;-67
2022/04/07 04:33:24;;;;;;;10.43;1.70;;;;;;;;;;5052414;28;20048;-67
2022/04/07 04:35:56;;;;;;;11.05;1.92;;;;;;;;;;5052226;28;20045;-67
2022/04/07 04:38:23;;;;;;;10.25;1.85;;;;;;;;;;5052007;28;20080;-67
2022/04/07 04:40:49;;;;;;;7.93;1.90;;;;;;;;;;5051799;28;20800;-67
2022/04/07 04:43:16;;;;;;;10.50;1.70;;;;;;;;;;5052214;28;20080;-67
2022/04/07 04:45:42;;;;;;;14.60;3.55;;;;;;;;;;5051883;28;20559;-67
2022/04/07 04:48:08;;;;;;;16.60;3.30;;;;;;;;;;5051775;28;20058;-67
2022/04/07 04:50:35;;;;;;;14.43;1.95;;;;;;;;;;5051738;28;20081;-67
2022/04/07 04:53:01;;;;;;;11.65;1.20;;;;;;;;;;5051943;28;20437;-67
2022/04/07 04:55:28;;;;;;;12.75;1.77;;;;;;;;;;5052054;28;20102;-68
2022/04/07 04:57:54;;;;;;;15.70;2.80;;;;;;;;;;5052080;28;20045;-67
2022/04/07 05:00:21;;;;;;;9.38;2.65;;;;;;;;;;5051649;28;20508;-67
2022/04/07 05:02:47;;;;;;;11.32;2.15;;;;;;;;;;5051835;28;20084;-67
2022/04/07 05:05:14;;;;;;;10.98;2.00;;;;;;;;;;5051822;28;20056;-67
2022/04/07 05:07:40;;;;;;;14.90;1.95;;;;;;;;;;5051751;28;20084;-68
2022/04/07 05:10:07;;;;;;;13.40;2.30;;;;;;;;;;5051373;28;20132;-67
2022/04/07 05:12:34;;;;;;;11.07;1.90;;;;;;;;;;5051833;28;20080;-68
2022/04/07 05:15:00;;;;;;;15.55;2.33;;;;;;;;;;5050532;28;20049;-67
2022/04/07 05:17:26;;;;;;;11.77;2.67;;;;;;;;;;5051359;28;20084;-67
2022/04/07 05:19:53;;;;;;;12.13;2.25;;;;;;;;;;5052040;28;20053;-68
2022/04/07 05:22:19;;;;;;;14.95;1.98;;;;;;;;;;5051436;28;20081;-67
2022/04/07 05:24:48;;;;;;;11.30;1.70;;;;;;;;;;5051819;28;20081;-67
2022/04/07 05:27:15;;;;;;;14.55;2.35;;;;;;;;;;5051477;28;20069;-67
2022/04/07 05:29:42;;;;;;;14.55;2.13;;;;;;;;;;5051589;28;20457;-67
2022/04/07 05:32:08;;;;;;;16.02;2.80;;;;;;;;;;5051322;28;20071;-68
2022/04/07 05:34:34;;;;;;;13.38;2.08;;;;;;;;;;5052881;28;20053;-68
2022/04/07 05:37:01;;;;;;;16.25;2.30;;;;;;;;;;5055346;28;20092;-67
2022/04/07 05:39:27;;;;;;;14.38;3.58;;;;;;;;;;5055651;28;20072;-67
2022/04/07 05:41:54;;;;;;;14.63;1.73;;;;;;;;;;5055379;28;20095;-67
2022/04/07 05:44:20;;;;;;;15.98;4.18;;;;;;;;;;5055180;28;20099;-67
2022/04/07 05:46:47;;;;;;;12.27;3.17;;;;;;;;;;5055257;28;20085;-67
2022/04/07 05:49:13;;;;;;;12.60;2.35;;;;;;;;;;5055469;28;20416;-67
2022/04/07 05:51:40;;;;;;;13.30;2.33;;;;;;;;;;5054933;28;20082;-68
2022/04/07 05:54:07;;;;;;;11.02;1.77;;;;;;;;;;5055062;28;20080;-68
2022/04/07 05:56:34;;;;;;;17.33;3.08;;;;;;;;;;5055055;28;20045;-68
2022/04/07 05:59:00;;;;;;;13.65;1.95;;;;;;;;;;5055005;28;20044;-68
2022/04/07 06:01:30;;;;;;;14.10;2.60;;;;;;;;;;5054969;28;20053;-67
2022/04/07 06:03:57;;;;;;;15.80;2.45;;;;;;;;;;5053946;28;20106;-67
2022/04/07 06:06:23;;;;;;;11.73;2.28;;;;;;;;;;5055136;28;20106;-67
2022/04/07 06:08:50;;;;;;;10.07;2.13;;;;;;;;;;5054935;28;20099;-69
2022/04/07 06:11:16;;;;;;;16.63;3.75;;;;;;;;;;5048128;28;20072;-67
2022/04/07 06:13:43;;;;;;;18.38;2.08;;;;;;;;;;5033243;28;20128;-67
2022/04/07 06:16:10;;;;;;;16.35;2.65;;;;;;;;;;5050573;28;20045;-67
2022/04/07 06:18:36;;;;;;;13.40;2.47;;;;;;;;;;5054394;28;20044;-71
2022/04/07 06:21:03;;;;;;;13.38;2.50;;;;;;;;;;5049683;28;20131;-71
2022/04/07 06:23:31;;;;;;;7.78;1.83;;;;;;;;;;5039653;28;20594;-68
2022/04/07 06:25:58;;;;;;;10.70;2.53;;;;;;;;;;5033901;28;20076;-70
2022/04/07 06:28:24;;;;;;;16.10;2.65;;;;;;;;;;5034366;28;20144;-69
2022/04/07 06:30:54;;;;;;;11.55;2.08;;;;;;;;;;5053312;28;20048;-71
2022/04/07 06:33:24;;;;;;;14.30;2.55;;;;;;;;;;5054388;28;20056;-68
2022/04/07 06:35:50;;;;;;;12.02;1.95;;;;;;;;;;5039722;28;20073;-68
2022/04/07 06:38:17;;;;;;;13.77;2.15;;;;;;;;;;5052932;28;20523;-68
2022/04/07 06:40:44;;;;;;;13.73;2.35;;;;;;;;;;5038471;28;20169;-68
2022/04/07 06:43:11;;;;;;;16.52;2.30;;;;;;;;;;5047106;28;20077;-69
2022/04/07 06:45:37;;;;;;;15.05;3.10;;;;;;;;;;5054232;28;20095;-66
2022/04/07 06:48:04;;;;;;;12.20;2.83;;;;;;;;;;5054472;28;20053;-68
2022/04/07 06:50:31;;;;;;;14.93;2.95;;;;;;;;;;5045774;28;20085;-67
2022/04/07 06:52:58;;;;;;;11.32;2.60;;;;;;;;;;5048496;28;20072;-67
2022/04/07 06:55:25;;;;;;;9.48;2.30;;;;;;;;;;5053975;28;20076;-67
2022/04/07 06:57:51;;;;;;;14.50;2.88;;;;;;;;;;5053822;28;20107;-68
2022/04/07 07:00:19;;;;;;;13.93;2.10;;;;;;;;;;5053646;28;20073;-67
2022/04/07 07:02:47;;;;;;;14.63;1.80;;;;;;;;;;5052324;28;20050;-67
2022/04/07 07:05:13;;;;;;;15.15;2.75;;;;;;;;;;5053591;28;20049;-67
2022/04/07 07:07:41;;;;;;;12.20;2.58;;;;;;;;;;5053556;28;20096;-67
2022/04/07 07:10:07;;;;;;;12.98;2.35;;;;;;;;;;5053388;28;20087;-67
2022/04/07 07:12:34;;;;;;;16.25;2.70;;;;;;;;;;5053641;28;20080;-68
2022/04/07 07:15:00;;;;;;;13.40;2.97;;;;;;;;;;5053526;28;20060;-68
2022/04/07 07:17:33;;;;;;;14.02;2.83;;;;;;;;;;5053517;28;20504;-67
2022/04/07 07:20:00;;;;;;;10.13;2.00;;;;;;;;;;5052296;28;20045;-68
2022/04/07 07:22:27;;;;;;;12.60;1.97;;;;;;;;;;5053710;28;20110;-68
2022/04/07 07:24:53;;;;;;;11.43;2.50;;;;;;;;;;5053350;28;20369;-68
2022/04/07 07:27:20;;;;;;;14.40;2.35;;;;;;;;;;5053327;28;20087;-68
2022/04/07 07:29:46;;;;;;;10.75;1.42;;;;;;;;;;5053611;28;20080;-68
2022/04/07 07:32:12;;;;;;;12.40;2.13;;;;;;;;;;5053115;28;20180;-68
2022/04/07 07:34:39;;;;;;;10.02;2.15;;;;;;;;;;5053545;28;20080;-68
2022/04/07 07:37:06;;;;;;;14.25;2.58;;;;;;;;;;5051856;28;20052;-68
2022/04/07 07:39:33;;;;;;;8.52;1.50;;;;;;;;;;5053150;28;20485;-67
2022/04/07 07:41:59;;;;;;;14.77;2.40;;;;;;;;;;5053306;28;20084;-68
2022/04/07 07:44:25;;;;;;;11.55;2.10;;;;;;;;;;5052947;28;20089;-67
2022/04/07 07:46:52;;;;;;;14.45;2.28;;;;;;;;;;5053274;28;20045;-68
2022/04/07 07:49:19;;;;;;;15.63;3.50;;;;;;;;;;5053125;28;20102;-68
2022/04/07 07:51:45;;;;;;;16.88;2.67;;;;;;;;;;5052724;28;20527;-68
2022/04/07 07:54:12;;;;;;;15.30;3.07;;;;;;;;;;5053151;28;20041;-67
2022/04/07 07:56:38;;;;;;;11.20;2.20;;;;;;;;;;5052064;28;20527;-68
2022/04/07 07:59:06;;;;;;;15.40;3.60;;;;;;;;;;5053139;28;20044;-68
2022/04/07 08:01:33;;;;;;;9.50;1.98;;;;;;;;;;5052821;28;20064;-68
2022/04/07 08:03:59;;;;;;;18.67;3.17;;;;;;;;;;5052773;28;20455;-68
2022/04/07 08:06:26;;;;;;;12.48;2.38;;;;;;;;;;5052595;28;20082;-68
2022/04/07 08:08:52;;;;;;;7.75;1.60;;;;;;;;;;5052431;28;20091;-68
2022/04/07 08:11:20;;;;;;;14.25;3.10;;;;;;;;;;5052895;28;20071;-68
2022/04/07 08:13:46;;;;;;;14.60;3.20;;;;;;;;;;5051491;28;20115;-68
2022/04/07 08:16:13;;;;;;;15.27;2.42;;;;;;;;;;5053039;28;20084;-68
2022/04/07 08:18:39;;;;;;;11.40;2.00;;;;;;;;;;5052248;28;20053;-68
2022/04/07 08:21:06;;;;;;;11.00;1.95;;;;;;;;;;5052320;28;20052;-68
2022/04/07 08:23:32;;;;;;;13.23;2.58;;;;;;;;;;5052602;28;20293;-68
2022/04/07 08:25:59;;;;;;;15.13;2.25;;;;;;;;;;5052482;28;20076;-68
2022/04/07 08:28:25;;;;;;;12.30;2.30;;;;;;;;;;5052524;28;20080;-68
2022/04/07 08:30:52;;;;;;;9.73;2.20;;;;;;;;;;5051212;28;20126;-68
2022/04/07 08:33:18;;;;;;;12.18;2.67;;;;;;;;;;5052386;28;20445;-68
2022/04/07 08:35:44;;;;;;;10.93;2.75;;;;;;;;;;5051988;28;20083;-69
2022/04/07 08:38:15;;;;;;;10.65;1.80;;;;;;;;;;5051959;28;20041;-69
2022/04/07 08:40:42;;;;;;;10.40;3.10;;;;;;;;;;5052057;28;20089;-69
2022/04/07 08:43:09;;;;;;;13.07;6.00;;;;;;;;;;5050734;28;20507;-69
2022/04/07 08:45:36;;;;;;;11.73;3.33;;;;;;;;;;5051929;28;20285;-69
2022/04/07 08:48:03;;;;;;;15.33;6.20;;;;;;;;;;5052098;28;20411;-69
2022/04/07 08:50:33;;;;;;;17.85;4.72;;;;;;;;;;5052029;28;20126;-69
2022/04/07 08:52:59;;;;;;;16.15;4.60;;;;;;;;;;5051997;28;20481;-70
2022/04/07 08:55:26;;;;;;;11.32;3.47;;;;;;;;;;5051893;28;20073;-69
2022/04/07 08:57:52;;;;;;;9.60;2.28;;;;;;;;;;5052001;28;20049;-69
2022/04/07 09:00:19;;;;;;;10.35;4.30;;;;;;;;;;5051645;28;20615;-69
2022/04/07 09:02:46;;;;;;;11.60;4.75;;;;;;;;;;5051943;28;20049;-70
2022/04/07 09:05:13;;;;;;;6.93;2.75;;;;;;;;;;5050351;28;20053;-69
2022/04/07 09:07:39;;;;;;;7.75;3.20;;;;;;;;;;5051902;28;20049;-69
2022/04/07 09:10:06;;;;;;;7.30;2.50;;;;;;;;;;5051482;28;20493;-70
2022/04/07 09:12:34;;;;;;;11.25;2.63;;;;;;;;;;5051487;28;20080;-70
2022/04/07 09:15:00;;;;;;;7.88;1.83;;;;;;;;;;5050684;28;20749;-70
2022/04/07 09:17:28;;;;;;;9.93;1.77;;;;;;;;;;5051418;28;20543;-70
2022/04/07 09:19:54;;;;;;;;;;;;;;;;;;5051907;28;20045;-70
2022/04/07 09:22:29;;;;;;;8.48;1.98;;;;;;;;;;5051762;28;19924;-70
2022/04/07 09:24:55;;;;;;;11.23;2.20;;;;;;;;;;5051360;28;20539;-71
2022/04/07 09:27:21;;;;;;;9.27;2.28;;;;;;;;;;5051556;28;20088;-71
2022/04/07 09:29:48;;;;;;;8.13;1.80;;;;;;;;;;5051378;28;20094;-71
2022/04/07 09:32:24;;;;;;;8.98;1.88;;;;;;;;;;5051452;28;20084;-72
2022/04/07 09:34:52;;;;;;;6.72;1.80;;;;;;;;;;5051713;28;20465;-72
2022/04/07 09:37:19;;;;;;;7.80;1.95;;;;;;;;;;5051524;28;20077;-72
2022/04/07 09:39:46;;;;;;;9.63;2.00;;;;;;;;;;5051370;28;20053;-72
2022/04/07 09:42:22;;;;;;;11.02;3.70;;;;;;;;;;5051373;28;20452;-72
2022/04/07 09:44:50;;;;;;;9.27;2.80;;;;;;;;;;5051589;28;20155;-73
2022/04/07 09:47:17;;;;;;;10.60;2.45;;;;;;;;;;5051238;28;20080;-73
2022/04/07 09:49:44;;;;;;;6.80;1.50;;;;;;;;;;5051144;28;20497;-73
2022/04/07 09:52:11;;;;;;;6.78;1.67;;;;;;;;;;5049837;28;20073;-73
2022/04/07 09:54:39;;;;;;;10.13;2.33;;;;;;;;;;5037354;28;20071;-73
2022/04/07 09:57:09;;;;;;;9.10;2.20;;;;;;;;;;5051107;28;20049;-73
2022/04/07 09:59:38;;;;;;;12.20;2.33;;;;;;;;;;5051160;28;20106;-73
2022/04/07 10:02:05;;;;;;;7.82;2.30;;;;;;;;;;5051045;28;20053;-73
2022/04/07 10:04:32;;;;;;;8.50;2.00;;;;;;;;;;5051369;28;20060;-73
2022/04/07 10:07:00;;;;;;;8.80;1.92;;;;;;;;;;5050981;28;20492;-73
2022/04/07 10:09:27;;;;;;;9.90;2.15;;;;;;;;;;5051421;28;20099;-73
2022/04/07 10:11:54;;;;;;;9.85;2.33;;;;;;;;;;5051030;28;20088;-73
2022/04/07 10:14:23;;;;;;;7.97;2.05;;;;;;;;;;5051399;28;20049;-73
2022/04/07 10:16:50;;;;;;;7.43;1.77;;;;;;;;;;5050984;28;20049;-73
2022/04/07 10:19:17;;;;;;;;;;;;;;;;;;5051719;28;20083;-73
2022/04/07 10:21:48;;;;;;;7.70;2.10;;;;;;;;;;5054856;28;19929;-73
2022/04/07 10:24:23;;;;;;;8.77;2.15;;;;;;;;;;5054536;28;20083;-73
2022/04/07 10:27:06;;;;;;;7.60;2.00;;;;;;;;;;5054530;28;20114;-73
2022/04/07 10:29:33;;;;;;;8.43;2.30;;;;;;;;;;5054762;28;20049;-73
2022/04/07 10:32:09;;;;;;;8.30;2.40;;;;;;;;;;5053215;28;20072;-73
2022/04/07 10:34:35;;;;;;;7.88;2.50;;;;;;;;;;5054718;28;20412;-73
2022/04/07 10:37:02;;;;;;;7.30;2.33;;;;;;;;;;5054606;28;20084;-74
2022/04/07 10:39:31;;;;;;;8.40;2.95;;;;;;;;;;5053277;28;20076;-74
2022/04/07 10:41:58;;;;;;;10.45;2.63;;;;;;;;;;5054562;28;20110;-74
2022/04/07 10:44:28;;;;;;;10.93;2.35;;;;;;;;;;5054421;28;20041;-74
2022/04/07 10:47:01;;;;;;;7.80;1.67;;;;;;;;;;5054373;28;20080;-74
2022/04/07 10:49:29;;;;;;;10.15;1.88;;;;;;;;;;5054034;28;20049;-74
2022/04/07 10:51:55;;;;;;;;;;;;;;;;;;5054441;28;20131;-74
2022/04/07 10:54:22;;;;;;;6.22;1.95;;;;;;;;;;5053012;28;19921;-74
2022/04/07 10:56:49;;;;;;;;;;;;;;;;;;5054339;28;20052;-74
2022/04/07 10:59:29;;;;;;;11.25;2.22;;;;;;;;;;5054222;28;19924;-74
2022/04/07 11:01:55;;;;;;;7.93;1.88;;;;;;;;;;5054969;28;20049;-74
2022/04/07 11:04:22;;;;;;;8.03;2.17;;;;;;;;;;5054153;28;20045;-75
2022/04/07 11:07:19;;;;;;;6.63;1.88;;;;;;;;;;5053781;28;20053;-75
2022/04/07 11:09:54;;;;;;;7.85;1.75;;;;;;;;;;5052460;28;20496;-74
2022/04/07 11:12:25;;;;;;;9.18;2.58;;;;;;;;;;5053869;28;20077;-74
2022/04/07 11:14:53;;;;;;;9.63;2.20;;;;;;;;;;5053730;28;20056;-74
2022/04/07 11:17:30;;;;;;;9.30;2.08;;;;;;;;;;5052349;28;20120;-74
2022/04/07 11:20:15;;;;;;;6.60;1.83;;;;;;;;;;5053781;28;20106;-74
2022/04/07 11:22:45;;;;;;;7.13;1.73;;;;;;;;;;5053671;28;20055;-74
2022/04/07 11:25:22;;;;;;;8.27;2.88;;;;;;;;;;5053224;28;20545;-74
2022/04/07 11:28:04;;;;;;;9.98;2.47;;;;;;;;;;5053687;28;20132;-74
2022/04/07 11:30:37;;;;;;;6.03;1.80;;;;;;;;;;5053340;28;20087;-74
2022/04/07 11:33:28;;;;;;;8.90;2.50;;;;;;;;;;5051517;28;20478;-74
2022/04/07 11:36:00;;;;;;;8.77;2.50;;;;;;;;;;5053460;28;20459;-74
2022/04/07 11:38:28;;;;;;;10.02;2.15;;;;;;;;;;5053149;28;20545;-74
2022/04/07 11:41:20;;;;;;;8.60;2.42;;;;;;;;;;5052958;28;20092;-74
2022/04/07 11:43:48;;;;;;;8.82;1.88;;;;;;;;;;5052655;28;20049;-73
2022/04/07 11:46:15;;;;;;;7.15;2.03;;;;;;;;;;5053241;28;20052;-74
2022/04/07 11:48:57;;;;;;;10.30;2.20;;;;;;;;;;5053208;28;20053;-74
2022/04/07 11:51:26;;;;;;;8.15;2.20;;;;;;;;;;5053345;28;20049;-74
2022/04/07 11:53:54;;;;;;;8.40;1.83;;;;;;;;;;5053075;28;20118;-74
2022/04/07 11:56:20;;;;;;;;;;;;;;;;;;5053185;28;20094;-74
2022/04/07 11:58:53;;;;;;;8.55;1.85;;;;;;;;;;5053123;28;19968;-75
2022/04/07 12:01:19;;;;;;;6.97;2.10;;;;;;;;;;5052951;28;20084;-74
2022/04/07 12:03:50;;;;;;;7.35;2.30;;;;;;;;;;5052779;28;20120;-74
2022/04/07 12:06:20;;;;;;;7.90;2.05;;;;;;;;;;5051628;28;20144;-74
2022/04/07 12:08:46;;;;;;;11.00;2.22;;;;;;;;;;5052623;28;20079;-75
2022/04/07 12:11:13;;;;;;;8.67;2.30;;;;;;;;;;5052465;28;20049;-74
2022/04/07 12:13:39;;;;;;;10.82;2.58;;;;;;;;;;5052516;28;20310;-74
2022/04/07 12:16:08;;;;;;;8.82;2.33;;;;;;;;;;5052432;28;20163;-74
2022/04/07 12:18:35;;;;;;;10.32;2.58;;;;;;;;;;5052388;28;20626;-75
2022/04/07 12:21:02;;;;;;;7.45;2.28;;;;;;;;;;5052700;28;20452;-74
2022/04/07 12:23:29;;;;;;;10.07;2.05;;;;;;;;;;5052651;28;20092;-74
2022/04/07 12:25:57;;;;;;;8.50;2.03;;;;;;;;;;5052381;28;20092;-74
2022/04/07 12:28:30;;;;;;;12.82;2.28;;;;;;;;;;5051116;28;20080;-74
2022/04/07 12:30:57;;;;;;;7.03;1.85;;;;;;;;;;5052403;28;20083;-74
2022/04/07 12:33:42;;;;;;;8.00;2.03;;;;;;;;;;5052085;28;20516;-74
2022/04/07 12:36:08;;;;;;;10.10;2.10;;;;;;;;;;5052359;28;20542;-74
2022/04/07 12:38:35;;;;;;;6.37;1.60;;;;;;;;;;5052039;28;20057;-74
2022/04/07 12:41:09;;;;;;;7.73;1.80;;;;;;;;;;5051977;28;20349;-74
2022/04/07 12:43:51;;;;;;;8.40;1.85;;;;;;;;;;5051702;28;20052;-74
2022/04/07 12:46:19;;;;;;;10.02;2.38;;;;;;;;;;5052106;28;20045;-74
2022/04/07 12:49:02;;;;;;;5.63;2.28;;;;;;;;;;5052025;28;20136;-74
2022/04/07 12:51:29;;;;;;;6.00;2.00;;;;;;;;;;5051661;28;20060;-74
2022/04/07 12:54:12;;;;;;;7.40;1.77;;;;;;;;;;5051735;28;20556;-74
2022/04/07 12:56:40;;;;;;;6.72;2.08;;;;;;;;;;5052026;28;20126;-75
2022/04/07 12:59:09;;;;;;;8.80;1.70;;;;;;;;;;5052008;28;20045;-74
2022/04/07 13:01:36;;;;;;;6.32;2.10;;;;;;;;;;5051809;28;20084;-75
2022/04/07 13:04:04;;;;;;;;;;;;;;;;;;5052079;28;20048;-76
2022/04/07 13:06:32;;;;;;;5.47;1.55;;;;;;;;;;5052162;28;19928;-76
2022/04/07 13:08:58;;;;;;;8.10;2.35;;;;;;;;;;5051532;28;20040;-76
2022/04/07 13:11:30;;;;;;;6.90;1.65;;;;;;;;;;5051911;28;20490;-75
2022/04/07 13:13:57;;;;;;;6.63;1.80;;;;;;;;;;5051830;28;20087;-75
2022/04/07 13:16:23;;;;;;;6.47;2.08;;;;;;;;;;5051808;28;20476;-75
2022/04/07 13:18:50;;;;;;;5.70;1.55;;;;;;;;;;5051732;28;20041;-74
2022/04/07 13:21:16;;;;;;;7.27;2.30;;;;;;;;;;5051717;28;20091;-75
2022/04/07 13:23:43;;;;;;;10.53;1.97;;;;;;;;;;5051710;28;20286;-75
2022/04/07 13:26:09;;;;;;;6.17;1.60;;;;;;;;;;5050744;28;20088;-75
2022/04/07 13:28:36;;;;;;;7.23;2.10;;;;;;;;;;5051514;28;20088;-74
2022/04/07 13:31:03;;;;;;;7.25;1.77;;;;;;;;;;5051769;28;20333;-74
2022/04/07 13:33:30;;;;;;;7.22;1.50;;;;;;;;;;5051616;28;20049;-74
2022/04/07 13:35:56;;;;;;;5.83;2.00;;;;;;;;;;5051272;28;20481;-74
2022/04/07 13:38:22;;;;;;;7.93;2.10;;;;;;;;;;5051311;28;20084;-74
2022/04/07 13:40:49;;;;;;;9.77;1.93;;;;;;;;;;5052259;28;20107;-74
2022/04/07 13:43:19;;;;;;;;;;;;;;;;;;5051963;28;20459;-73
2022/04/07 13:45:45;;;;;;;7.72;1.52;;;;;;;;;;5049910;28;19955;-73
2022/04/07 13:48:17;;;;;;;5.90;1.58;;;;;;;;;;5050342;28;20045;-73
2022/04/07 13:50:44;;;;;;;4.50;1.30;;;;;;;;;;5051185;28;20496;-73
2022/04/07 13:53:10;;;;;;;5.10;1.50;;;;;;;;;;5051309;28;20076;-73
2022/04/07 13:55:37;;;;;;;4.87;1.57;;;;;;;;;;5053620;28;20095;-73
2022/04/07 13:58:03;;;;;;;7.07;1.33;;;;;;;;;;5055301;28;20087;-73
2022/04/07 14:00:30;;;;;;;7.20;1.60;;;;;;;;;;5055043;28;20282;-74
2022/04/07 14:02:56;;;;;;;5.65;1.75;;;;;;;;;;5054890;28;20114;-73
2022/04/07 14:05:23;;;;;;;6.13;1.70;;;;;;;;;;5055276;28;20439;-73
2022/04/07 14:07:49;;;;;;;7.53;2.40;;;;;;;;;;5055038;28;20091;-73
2022/04/07 14:10:17;;;;;;;9.50;2.10;;;;;;;;;;5054755;28;20318;-73
2022/04/07 14:12:43;;;;;;;7.75;1.75;;;;;;;;;;5055005;28;20084;-73
2022/04/07 14:15:10;;;;;;;7.55;1.95;;;;;;;;;;5054954;28;20124;-74
2022/04/07 14:17:37;;;;;;;5.97;1.92;;;;;;;;;;5055012;28;20053;-73
2022/04/07 14:20:04;;;;;;;8.25;1.55;;;;;;;;;;5054840;28;20068;-73
2022/04/07 14:22:30;;;;;;;5.47;1.50;;;;;;;;;;5054889;28;20102;-73
2022/04/07 14:24:57;;;;;;;7.13;1.60;;;;;;;;;;5054604;28;20516;-73
2022/04/07 14:27:23;;;;;;;8.30;2.17;;;;;;;;;;5053229;28;20099;-73
2022/04/07 14:29:50;;;;;;;7.07;2.17;;;;;;;;;;5054788;28;20716;-73
2022/04/07 14:32:16;;;;;;;7.70;1.70;;;;;;;;;;5054602;28;20099;-73
2022/04/07 14:34:43;;;;;;;6.43;1.77;;;;;;;;;;5054767;28;20186;-73
2022/04/07 14:37:09;;;;;;;7.45;1.88;;;;;;;;;;5054316;28;20075;-73
2022/04/07 14:39:35;;;;;;;7.80;2.20;;;;;;;;;;5054359;28;20076;-73
2022/04/07 14:42:02;;;;;;;6.55;1.92;;;;;;;;;;5053017;28;20045;-73
2022/04/07 14:44:29;;;;;;;9.05;2.03;;;;;;;;;;5054316;28;20076;-73